sensor_id;sensor_type;location;lat;lon;timestamp;P1;durP1;ratioP1;P2;durP2;ratioP2
74369;SDS011;62805;44.644;10.942;2022-09-28T00:01:46;7.45;;;1.77;;
74369;SDS011;62805;44.644;10.942;2022-09-28T00:04:11;4.22;;;1.40;;
74369;SDS011;62805;44.644;10.942;2022-09-28T00:06:37;5.32;;;1.30;;
74369;SDS011;62805;44.644;10.942;2022-09-28T00:09:02;7.53;;;1.60;;
74369;SDS011;62805;44.644;10.942;2022-09-28T00:11:28;6.75;;;2.13;;
74369;SDS011;62805;44.644;10.942;2022-09-28T00:13:54;6.78;;;1.52;;
74369;SDS011;62805;44.644;10.942;2022-09-28T00:16:23;5.88;;;1.75;;
74369;SDS011;62805;44.644;10.942;2022-09-28T00:18:50;5.32;;;1.20;;
74369;SDS011;62805;44.644;10.942;2022-09-28T00:21:17;5.63;;;1.60;;
74369;SDS011;62805;44.644;10.942;2022-09-28T00:23:45;2.92;;;1.10;;
74369;SDS011;62805;44.644;10.942;2022-09-28T00:26:30;10.05;;;1.73;;
74369;SDS011;62805;44.644;10.942;2022-09-28T00:31:23;3.78;;;1.23;;
74369;SDS011;62805;44.644;10.942;2022-09-28T00:33:50;4.43;;;1.30;;
74369;SDS011;62805;44.644;10.942;2022-09-28T00:36:16;9.38;;;1.30;;
74369;SDS011;62805;44.644;10.942;2022-09-28T00:38:42;5.13;;;1.15;;
74369;SDS011;62805;44.644;10.942;2022-09-28T00:41:09;6.37;;;1.50;;
74369;SDS011;62805;44.644;10.942;2022-09-28T00:43:35;5.63;;;1.30;;
74369;SDS011;62805;44.644;10.942;2022-09-28T00:46:01;4.40;;;1.23;;
74369;SDS011;62805;44.644;10.942;2022-09-28T00:48:29;5.70;;;1.50;;
74369;SDS011;62805;44.644;10.942;2022-09-28T00:51:00;4.85;;;1.35;;
74369;SDS011;62805;44.644;10.942;2022-09-28T00:53:29;5.32;;;1.70;;
74369;SDS011;62805;44.644;10.942;2022-09-28T00:55:58;6.82;;;1.48;;
74369;SDS011;62805;44.644;10.942;2022-09-28T00:58:31;4.32;;;1.40;;
74369;SDS011;62805;44.644;10.942;2022-09-28T01:00:58;5.95;;;1.65;;
74369;SDS011;62805;44.644;10.942;2022-09-28T01:03:24;6.38;;;1.70;;
74369;SDS011;62805;44.644;10.942;2022-09-28T01:05:50;6.40;;;1.60;;
74369;SDS011;62805;44.644;10.942;2022-09-28T01:08:17;7.57;;;1.70;;
74369;SDS011;62805;44.644;10.942;2022-09-28T01:10:45;3.97;;;1.27;;
74369;SDS011;62805;44.644;10.942;2022-09-28T01:13:11;4.72;;;1.23;;
74369;SDS011;62805;44.644;10.942;2022-09-28T01:15:39;9.25;;;1.50;;
74369;SDS011;62805;44.644;10.942;2022-09-28T01:18:16;5.35;;;1.30;;
74369;SDS011;62805;44.644;10.942;2022-09-28T01:21:21;5.40;;;1.20;;
74369;SDS011;62805;44.644;10.942;2022-09-28T01:29:20;5.93;;;1.50;;
74369;SDS011;62805;44.644;10.942;2022-09-28T01:31:50;3.25;;;1.20;;
74369;SDS011;62805;44.644;10.942;2022-09-28T01:34:29;6.65;;;1.40;;
74369;SDS011;62805;44.644;10.942;2022-09-28T01:37:00;3.22;;;1.38;;
74369;SDS011;62805;44.644;10.942;2022-09-28T01:39:30;4.57;;;1.55;;
74369;SDS011;62805;44.644;10.942;2022-09-28T01:41:59;4.63;;;1.30;;
74369;SDS011;62805;44.644;10.942;2022-09-28T01:44:28;3.80;;;1.33;;
74369;SDS011;62805;44.644;10.942;2022-09-28T01:46:55;6.88;;;1.58;;
74369;SDS011;62805;44.644;10.942;2022-09-28T01:49:31;4.45;;;1.20;;
74369;SDS011;62805;44.644;10.942;2022-09-28T01:52:01;3.85;;;1.27;;
74369;SDS011;62805;44.644;10.942;2022-09-28T01:57:07;6.15;;;1.58;;
74369;SDS011;62805;44.644;10.942;2022-09-28T01:59:36;4.70;;;1.10;;
74369;SDS011;62805;44.644;10.942;2022-09-28T02:02:08;6.65;;;1.23;;
74369;SDS011;62805;44.644;10.942;2022-09-28T02:04:40;5.72;;;1.92;;
74369;SDS011;62805;44.644;10.942;2022-09-28T02:07:11;5.93;;;1.33;;
74369;SDS011;62805;44.644;10.942;2022-09-28T02:09:41;4.63;;;1.20;;
74369;SDS011;62805;44.644;10.942;2022-09-28T02:12:20;7.78;;;1.42;;
74369;SDS011;62805;44.644;10.942;2022-09-28T02:14:48;3.92;;;1.50;;
74369;SDS011;62805;44.644;10.942;2022-09-28T02:17:16;6.50;;;1.40;;
74369;SDS011;62805;44.644;10.942;2022-09-28T02:19:42;7.80;;;1.60;;
74369;SDS011;62805;44.644;10.942;2022-09-28T02:22:27;6.68;;;1.40;;
74369;SDS011;62805;44.644;10.942;2022-09-28T02:24:58;5.57;;;1.30;;
74369;SDS011;62805;44.644;10.942;2022-09-28T02:29:54;6.33;;;1.40;;
74369;SDS011;62805;44.644;10.942;2022-09-28T02:32:20;4.00;;;1.50;;
74369;SDS011;62805;44.644;10.942;2022-09-28T02:34:45;6.68;;;1.60;;
74369;SDS011;62805;44.644;10.942;2022-09-28T02:37:10;7.63;;;1.48;;
74369;SDS011;62805;44.644;10.942;2022-09-28T02:39:36;6.03;;;1.50;;
74369;SDS011;62805;44.644;10.942;2022-09-28T02:42:14;5.25;;;1.77;;
74369;SDS011;62805;44.644;10.942;2022-09-28T02:44:48;7.25;;;1.67;;
74369;SDS011;62805;44.644;10.942;2022-09-28T02:50:11;6.22;;;1.45;;
74369;SDS011;62805;44.644;10.942;2022-09-28T03:00:54;4.15;;;1.70;;
74369;SDS011;62805;44.644;10.942;2022-09-28T03:03:28;9.68;;;3.45;;
74369;SDS011;62805;44.644;10.942;2022-09-28T03:08:30;5.10;;;1.73;;
74369;SDS011;62805;44.644;10.942;2022-09-28T03:11:04;12.70;;;2.25;;
74369;SDS011;62805;44.644;10.942;2022-09-28T03:13:32;8.35;;;1.67;;
74369;SDS011;62805;44.644;10.942;2022-09-28T03:18:42;5.47;;;1.60;;
74369;SDS011;62805;44.644;10.942;2022-09-28T03:21:09;7.82;;;2.08;;
74369;SDS011;62805;44.644;10.942;2022-09-28T03:23:36;9.35;;;2.67;;
74369;SDS011;62805;44.644;10.942;2022-09-28T03:26:02;4.93;;;2.20;;
74369;SDS011;62805;44.644;10.942;2022-09-28T03:28:27;6.13;;;1.90;;
74369;SDS011;62805;44.644;10.942;2022-09-28T03:30:53;8.23;;;2.33;;
74369;SDS011;62805;44.644;10.942;2022-09-28T03:33:19;6.10;;;2.08;;
74369;SDS011;62805;44.644;10.942;2022-09-28T03:35:45;10.23;;;1.98;;
74369;SDS011;62805;44.644;10.942;2022-09-28T03:38:11;7.07;;;2.65;;
74369;SDS011;62805;44.644;10.942;2022-09-28T03:40:37;12.23;;;3.87;;
74369;SDS011;62805;44.644;10.942;2022-09-28T03:43:02;7.10;;;2.80;;
74369;SDS011;62805;44.644;10.942;2022-09-28T03:45:27;11.03;;;3.80;;
74369;SDS011;62805;44.644;10.942;2022-09-28T03:47:53;10.10;;;3.40;;
74369;SDS011;62805;44.644;10.942;2022-09-28T03:50:18;10.32;;;2.97;;
74369;SDS011;62805;44.644;10.942;2022-09-28T03:52:44;6.90;;;2.83;;
74369;SDS011;62805;44.644;10.942;2022-09-28T03:55:09;8.85;;;3.28;;
74369;SDS011;62805;44.644;10.942;2022-09-28T03:57:35;8.07;;;2.53;;
74369;SDS011;62805;44.644;10.942;2022-09-28T04:00:02;8.48;;;3.55;;
74369;SDS011;62805;44.644;10.942;2022-09-28T04:02:30;6.75;;;2.80;;
74369;SDS011;62805;44.644;10.942;2022-09-28T04:04:58;8.82;;;3.35;;
74369;SDS011;62805;44.644;10.942;2022-09-28T04:07:23;8.38;;;3.20;;
74369;SDS011;62805;44.644;10.942;2022-09-28T04:09:49;9.75;;;3.33;;
74369;SDS011;62805;44.644;10.942;2022-09-28T04:12:14;12.03;;;3.60;;
74369;SDS011;62805;44.644;10.942;2022-09-28T04:14:39;6.53;;;2.70;;
74369;SDS011;62805;44.644;10.942;2022-09-28T04:17:05;7.37;;;2.80;;
74369;SDS011;62805;44.644;10.942;2022-09-28T04:19:31;5.68;;;2.42;;
74369;SDS011;62805;44.644;10.942;2022-09-28T04:21:56;8.75;;;3.13;;
74369;SDS011;62805;44.644;10.942;2022-09-28T04:24:22;6.88;;;2.58;;
74369;SDS011;62805;44.644;10.942;2022-09-28T04:26:47;8.98;;;2.85;;
74369;SDS011;62805;44.644;10.942;2022-09-28T04:29:13;6.28;;;2.63;;
74369;SDS011;62805;44.644;10.942;2022-09-28T04:34:15;10.02;;;2.80;;
74369;SDS011;62805;44.644;10.942;2022-09-28T04:36:45;6.75;;;3.00;;
74369;SDS011;62805;44.644;10.942;2022-09-28T04:39:11;8.95;;;2.80;;
74369;SDS011;62805;44.644;10.942;2022-09-28T04:41:38;7.93;;;2.55;;
74369;SDS011;62805;44.644;10.942;2022-09-28T04:44:04;10.80;;;3.00;;
74369;SDS011;62805;44.644;10.942;2022-09-28T04:46:29;8.80;;;2.97;;
74369;SDS011;62805;44.644;10.942;2022-09-28T04:48:54;8.40;;;2.78;;
74369;SDS011;62805;44.644;10.942;2022-09-28T04:51:20;6.83;;;2.70;;
74369;SDS011;62805;44.644;10.942;2022-09-28T04:53:45;10.70;;;2.95;;
74369;SDS011;62805;44.644;10.942;2022-09-28T04:56:12;7.20;;;2.53;;
74369;SDS011;62805;44.644;10.942;2022-09-28T04:58:38;8.80;;;3.08;;
74369;SDS011;62805;44.644;10.942;2022-09-28T05:01:05;8.50;;;2.60;;
74369;SDS011;62805;44.644;10.942;2022-09-28T05:03:33;11.45;;;2.72;;
74369;SDS011;62805;44.644;10.942;2022-09-28T05:05:59;6.13;;;2.58;;
74369;SDS011;62805;44.644;10.942;2022-09-28T05:08:25;6.30;;;3.10;;
74369;SDS011;62805;44.644;10.942;2022-09-28T05:10:58;8.35;;;3.03;;
74369;SDS011;62805;44.644;10.942;2022-09-28T05:13:25;9.00;;;2.90;;
74369;SDS011;62805;44.644;10.942;2022-09-28T05:15:51;9.80;;;2.92;;
74369;SDS011;62805;44.644;10.942;2022-09-28T05:18:18;6.97;;;2.67;;
74369;SDS011;62805;44.644;10.942;2022-09-28T05:20:43;6.78;;;2.60;;
74369;SDS011;62805;44.644;10.942;2022-09-28T05:23:09;7.93;;;2.60;;
74369;SDS011;62805;44.644;10.942;2022-09-28T05:25:36;7.85;;;3.17;;
74369;SDS011;62805;44.644;10.942;2022-09-28T05:28:01;8.10;;;3.20;;
74369;SDS011;62805;44.644;10.942;2022-09-28T05:30:27;10.63;;;3.40;;
74369;SDS011;62805;44.644;10.942;2022-09-28T05:32:52;11.10;;;3.47;;
74369;SDS011;62805;44.644;10.942;2022-09-28T05:35:18;15.23;;;3.83;;
74369;SDS011;62805;44.644;10.942;2022-09-28T05:37:44;8.13;;;3.78;;
74369;SDS011;62805;44.644;10.942;2022-09-28T05:40:09;6.93;;;3.60;;
74369;SDS011;62805;44.644;10.942;2022-09-28T05:42:35;12.98;;;4.05;;
74369;SDS011;62805;44.644;10.942;2022-09-28T05:45:00;8.57;;;3.88;;
74369;SDS011;62805;44.644;10.942;2022-09-28T05:47:27;6.97;;;3.85;;
74369;SDS011;62805;44.644;10.942;2022-09-28T05:49:53;12.57;;;4.10;;
74369;SDS011;62805;44.644;10.942;2022-09-28T05:52:19;9.57;;;4.10;;
74369;SDS011;62805;44.644;10.942;2022-09-28T05:54:44;12.60;;;4.05;;
74369;SDS011;62805;44.644;10.942;2022-09-28T05:57:10;13.52;;;4.70;;
74369;SDS011;62805;44.644;10.942;2022-09-28T05:59:36;9.63;;;3.80;;
74369;SDS011;62805;44.644;10.942;2022-09-28T06:02:01;9.15;;;4.15;;
74369;SDS011;62805;44.644;10.942;2022-09-28T06:04:27;7.85;;;4.05;;
74369;SDS011;62805;44.644;10.942;2022-09-28T06:06:53;12.02;;;4.28;;
74369;SDS011;62805;44.644;10.942;2022-09-28T06:09:19;11.48;;;4.45;;
74369;SDS011;62805;44.644;10.942;2022-09-28T06:11:44;12.85;;;4.38;;
74369;SDS011;62805;44.644;10.942;2022-09-28T06:14:09;10.17;;;4.20;;
74369;SDS011;62805;44.644;10.942;2022-09-28T06:16:37;8.63;;;4.90;;
74369;SDS011;62805;44.644;10.942;2022-09-28T06:19:03;8.20;;;4.50;;
74369;SDS011;62805;44.644;10.942;2022-09-28T06:21:28;11.15;;;4.60;;
74369;SDS011;62805;44.644;10.942;2022-09-28T06:23:54;8.33;;;4.40;;
74369;SDS011;62805;44.644;10.942;2022-09-28T06:26:19;10.85;;;5.05;;
74369;SDS011;62805;44.644;10.942;2022-09-28T06:28:45;12.23;;;5.50;;
74369;SDS011;62805;44.644;10.942;2022-09-28T06:31:11;12.40;;;5.72;;
74369;SDS011;62805;44.644;10.942;2022-09-28T06:33:36;9.98;;;5.05;;
74369;SDS011;62805;44.644;10.942;2022-09-28T06:36:02;10.00;;;6.18;;
74369;SDS011;62805;44.644;10.942;2022-09-28T06:38:28;12.32;;;6.07;;
74369;SDS011;62805;44.644;10.942;2022-09-28T06:40:55;12.32;;;6.38;;
74369;SDS011;62805;44.644;10.942;2022-09-28T06:43:21;15.85;;;6.38;;
74369;SDS011;62805;44.644;10.942;2022-09-28T06:45:50;9.65;;;6.03;;
74369;SDS011;62805;44.644;10.942;2022-09-28T06:48:16;15.38;;;6.90;;
74369;SDS011;62805;44.644;10.942;2022-09-28T06:50:41;11.23;;;7.20;;
74369;SDS011;62805;44.644;10.942;2022-09-28T06:53:09;10.98;;;7.03;;
74369;SDS011;62805;44.644;10.942;2022-09-28T06:55:39;13.40;;;7.07;;
74369;SDS011;62805;44.644;10.942;2022-09-28T06:58:09;11.18;;;6.43;;
74369;SDS011;62805;44.644;10.942;2022-09-28T07:00:36;10.95;;;6.40;;
74369;SDS011;62805;44.644;10.942;2022-09-28T07:03:03;10.25;;;6.32;;
74369;SDS011;62805;44.644;10.942;2022-09-28T07:05:30;11.80;;;6.60;;
74369;SDS011;62805;44.644;10.942;2022-09-28T07:07:58;11.48;;;6.38;;
74369;SDS011;62805;44.644;10.942;2022-09-28T07:10:24;13.60;;;6.70;;
74369;SDS011;62805;44.644;10.942;2022-09-28T07:12:52;12.43;;;6.57;;
74369;SDS011;62805;44.644;10.942;2022-09-28T07:15:17;13.70;;;6.85;;
74369;SDS011;62805;44.644;10.942;2022-09-28T07:17:43;14.07;;;7.15;;
74369;SDS011;62805;44.644;10.942;2022-09-28T07:20:08;12.45;;;7.07;;
74369;SDS011;62805;44.644;10.942;2022-09-28T07:22:34;12.52;;;6.80;;
74369;SDS011;62805;44.644;10.942;2022-09-28T07:24:59;9.50;;;6.07;;
74369;SDS011;62805;44.644;10.942;2022-09-28T07:27:25;11.68;;;6.10;;
74369;SDS011;62805;44.644;10.942;2022-09-28T07:29:50;13.35;;;6.05;;
74369;SDS011;62805;44.644;10.942;2022-09-28T07:32:18;19.55;;;7.07;;
74369;SDS011;62805;44.644;10.942;2022-09-28T07:34:44;10.95;;;6.40;;
74369;SDS011;62805;44.644;10.942;2022-09-28T07:37:09;11.60;;;6.63;;
74369;SDS011;62805;44.644;10.942;2022-09-28T07:39:36;13.25;;;6.07;;
74369;SDS011;62805;44.644;10.942;2022-09-28T07:42:22;14.52;;;7.25;;
74369;SDS011;62805;44.644;10.942;2022-09-28T07:44:48;10.50;;;6.40;;
74369;SDS011;62805;44.644;10.942;2022-09-28T07:47:14;11.32;;;6.65;;
74369;SDS011;62805;44.644;10.942;2022-09-28T07:49:39;13.23;;;7.82;;
74369;SDS011;62805;44.644;10.942;2022-09-28T07:52:04;17.37;;;7.80;;
74369;SDS011;62805;44.644;10.942;2022-09-28T07:54:30;14.10;;;7.72;;
74369;SDS011;62805;44.644;10.942;2022-09-28T07:56:55;14.75;;;6.97;;
74369;SDS011;62805;44.644;10.942;2022-09-28T07:59:21;12.73;;;7.20;;
74369;SDS011;62805;44.644;10.942;2022-09-28T08:01:46;11.80;;;7.00;;
74369;SDS011;62805;44.644;10.942;2022-09-28T08:04:13;13.30;;;6.63;;
74369;SDS011;62805;44.644;10.942;2022-09-28T08:06:39;13.52;;;6.70;;
74369;SDS011;62805;44.644;10.942;2022-09-28T08:09:05;11.60;;;6.80;;
74369;SDS011;62805;44.644;10.942;2022-09-28T08:11:30;13.70;;;6.50;;
74369;SDS011;62805;44.644;10.942;2022-09-28T08:13:55;12.07;;;6.38;;
74369;SDS011;62805;44.644;10.942;2022-09-28T08:16:22;12.88;;;7.40;;
74369;SDS011;62805;44.644;10.942;2022-09-28T08:18:48;14.18;;;6.60;;
74369;SDS011;62805;44.644;10.942;2022-09-28T08:21:13;15.10;;;6.85;;
74369;SDS011;62805;44.644;10.942;2022-09-28T08:23:57;13.45;;;5.90;;
74369;SDS011;62805;44.644;10.942;2022-09-28T08:26:24;10.75;;;6.88;;
74369;SDS011;62805;44.644;10.942;2022-09-28T08:28:50;13.10;;;6.63;;
74369;SDS011;62805;44.644;10.942;2022-09-28T08:31:15;10.52;;;5.90;;
74369;SDS011;62805;44.644;10.942;2022-09-28T08:33:40;13.82;;;7.47;;
74369;SDS011;62805;44.644;10.942;2022-09-28T08:36:07;10.25;;;6.43;;
74369;SDS011;62805;44.644;10.942;2022-09-28T08:38:33;11.02;;;6.43;;
74369;SDS011;62805;44.644;10.942;2022-09-28T08:46:15;11.85;;;6.53;;
74369;SDS011;62805;44.644;10.942;2022-09-28T08:49:00;11.88;;;6.97;;
74369;SDS011;62805;44.644;10.942;2022-09-28T08:51:50;11.30;;;6.95;;
74369;SDS011;62805;44.644;10.942;2022-09-28T08:59:52;11.00;;;6.28;;
74369;SDS011;62805;44.644;10.942;2022-09-28T09:02:35;12.68;;;6.45;;
74369;SDS011;62805;44.644;10.942;2022-09-28T09:05:04;12.63;;;6.28;;
74369;SDS011;62805;44.644;10.942;2022-09-28T09:10:48;10.82;;;5.75;;
74369;SDS011;62805;44.644;10.942;2022-09-28T09:19:14;12.43;;;4.95;;
74369;SDS011;62805;44.644;10.942;2022-09-28T09:21:45;12.10;;;4.40;;
74369;SDS011;62805;44.644;10.942;2022-09-28T09:24:17;6.82;;;3.88;;
74369;SDS011;62805;44.644;10.942;2022-09-28T09:26:52;8.85;;;3.67;;
74369;SDS011;62805;44.644;10.942;2022-09-28T09:38:14;10.68;;;3.17;;
74369;SDS011;62805;44.644;10.942;2022-09-28T09:40:58;8.93;;;3.35;;
74369;SDS011;62805;44.644;10.942;2022-09-28T09:46:16;9.50;;;2.70;;
74369;SDS011;62805;44.644;10.942;2022-09-28T09:53:41;12.57;;;3.08;;
74369;SDS011;62805;44.644;10.942;2022-09-28T09:56:14;5.75;;;2.20;;
74369;SDS011;62805;44.644;10.942;2022-09-28T09:58:47;7.82;;;2.10;;
74369;SDS011;62805;44.644;10.942;2022-09-28T10:01:18;9.27;;;2.50;;
74369;SDS011;62805;44.644;10.942;2022-09-28T10:03:46;8.38;;;3.03;;
74369;SDS011;62805;44.644;10.942;2022-09-28T10:06:20;6.72;;;2.20;;
74369;SDS011;62805;44.644;10.942;2022-09-28T10:09:03;12.55;;;3.05;;
74369;SDS011;62805;44.644;10.942;2022-09-28T10:13:58;7.32;;;2.35;;
74369;SDS011;62805;44.644;10.942;2022-09-28T10:16:23;6.68;;;2.33;;
74369;SDS011;62805;44.644;10.942;2022-09-28T10:18:49;10.80;;;1.85;;
74369;SDS011;62805;44.644;10.942;2022-09-28T10:21:15;11.93;;;3.95;;
74369;SDS011;62805;44.644;10.942;2022-09-28T10:23:41;35.13;;;16.77;;
74369;SDS011;62805;44.644;10.942;2022-09-28T10:26:18;17.95;;;6.57;;
74369;SDS011;62805;44.644;10.942;2022-09-28T10:29:03;10.50;;;2.60;;
74369;SDS011;62805;44.644;10.942;2022-09-28T10:34:05;5.68;;;2.15;;
74369;SDS011;62805;44.644;10.942;2022-09-28T10:36:32;9.48;;;2.30;;
74369;SDS011;62805;44.644;10.942;2022-09-28T10:39:57;4.57;;;1.60;;
74369;SDS011;62805;44.644;10.942;2022-09-28T10:42:24;10.38;;;2.10;;
74369;SDS011;62805;44.644;10.942;2022-09-28T10:44:53;7.35;;;1.90;;
74369;SDS011;62805;44.644;10.942;2022-09-28T10:47:20;10.48;;;2.10;;
74369;SDS011;62805;44.644;10.942;2022-09-28T10:49:48;7.15;;;2.10;;
74369;SDS011;62805;44.644;10.942;2022-09-28T10:55:00;9.60;;;2.10;;
74369;SDS011;62805;44.644;10.942;2022-09-28T10:57:27;7.03;;;1.67;;
74369;SDS011;62805;44.644;10.942;2022-09-28T10:59:54;5.50;;;1.63;;
74369;SDS011;62805;44.644;10.942;2022-09-28T11:02:22;6.90;;;1.60;;
74369;SDS011;62805;44.644;10.942;2022-09-28T11:05:06;10.43;;;1.77;;
74369;SDS011;62805;44.644;10.942;2022-09-28T11:07:45;8.40;;;1.90;;
74369;SDS011;62805;44.644;10.942;2022-09-28T11:10:21;8.45;;;1.88;;
74369;SDS011;62805;44.644;10.942;2022-09-28T11:12:50;8.20;;;1.75;;
74369;SDS011;62805;44.644;10.942;2022-09-28T11:15:17;7.43;;;1.55;;
74369;SDS011;62805;44.644;10.942;2022-09-28T11:17:44;7.05;;;1.42;;
74369;SDS011;62805;44.644;10.942;2022-09-28T11:22:51;7.55;;;2.10;;
74369;SDS011;62805;44.644;10.942;2022-09-28T11:30:59;9.18;;;1.60;;
74369;SDS011;62805;44.644;10.942;2022-09-28T11:33:10;9.68;;;1.80;;
74369;SDS011;62805;44.644;10.942;2022-09-28T11:35:45;6.18;;;1.40;;
74369;SDS011;62805;44.644;10.942;2022-09-28T11:38:40;13.75;;;4.80;;
74369;SDS011;62805;44.644;10.942;2022-09-28T11:51:52;6.47;;;1.52;;
74369;SDS011;62805;44.644;10.942;2022-09-28T11:54:31;10.35;;;1.70;;
74369;SDS011;62805;44.644;10.942;2022-09-28T11:57:03;7.88;;;1.75;;
74369;SDS011;62805;44.644;10.942;2022-09-28T11:59:38;7.00;;;1.65;;
74369;SDS011;62805;44.644;10.942;2022-09-28T12:02:15;8.50;;;1.38;;
74369;SDS011;62805;44.644;10.942;2022-09-28T12:04:55;6.72;;;1.50;;
74369;SDS011;62805;44.644;10.942;2022-09-28T12:07:33;8.40;;;1.60;;
74369;SDS011;62805;44.644;10.942;2022-09-28T12:17:34;4.72;;;1.27;;
74369;SDS011;62805;44.644;10.942;2022-09-28T12:23:32;5.88;;;1.33;;
74369;SDS011;62805;44.644;10.942;2022-09-28T12:25:50;9.48;;;1.60;;
74369;SDS011;62805;44.644;10.942;2022-09-28T12:31:16;8.60;;;1.52;;
74369;SDS011;62805;44.644;10.942;2022-09-28T12:33:44;8.45;;;1.88;;
74369;SDS011;62805;44.644;10.942;2022-09-28T12:55:32;5.85;;;1.33;;
74369;SDS011;62805;44.644;10.942;2022-09-28T13:14:30;7.68;;;1.35;;
74369;SDS011;62805;44.644;10.942;2022-09-28T13:20:06;6.28;;;1.50;;
74369;SDS011;62805;44.644;10.942;2022-09-28T13:22:38;7.43;;;1.40;;
74369;SDS011;62805;44.644;10.942;2022-09-28T13:25:15;11.02;;;1.77;;
74369;SDS011;62805;44.644;10.942;2022-09-28T13:27:45;8.52;;;2.08;;
74369;SDS011;62805;44.644;10.942;2022-09-28T13:30:12;6.00;;;1.65;;
74369;SDS011;62805;44.644;10.942;2022-09-28T13:32:38;7.00;;;1.50;;
74369;SDS011;62805;44.644;10.942;2022-09-28T13:35:04;7.35;;;1.67;;
74369;SDS011;62805;44.644;10.942;2022-09-28T13:37:30;9.02;;;1.80;;
74369;SDS011;62805;44.644;10.942;2022-09-28T13:39:58;7.00;;;2.15;;
74369;SDS011;62805;44.644;10.942;2022-09-28T13:45:49;5.90;;;1.73;;
74369;SDS011;62805;44.644;10.942;2022-09-28T13:48:32;9.32;;;2.83;;
74369;SDS011;62805;44.644;10.942;2022-09-28T13:51:17;8.63;;;1.75;;
74369;SDS011;62805;44.644;10.942;2022-09-28T14:02:34;3.75;;;1.45;;
74369;SDS011;62805;44.644;10.942;2022-09-28T14:04:54;9.55;;;2.17;;
74369;SDS011;62805;44.644;10.942;2022-09-28T14:12:49;5.93;;;1.20;;
74369;SDS011;62805;44.644;10.942;2022-09-28T14:20:56;5.40;;;1.10;;
74369;SDS011;62805;44.644;10.942;2022-09-28T14:23:36;6.05;;;1.50;;
74369;SDS011;62805;44.644;10.942;2022-09-28T14:31:07;6.32;;;1.50;;
74369;SDS011;62805;44.644;10.942;2022-09-28T14:33:38;9.80;;;2.03;;
74369;SDS011;62805;44.644;10.942;2022-09-28T14:36:07;5.63;;;1.67;;
74369;SDS011;62805;44.644;10.942;2022-09-28T14:39:17;5.07;;;1.60;;
74369;SDS011;62805;44.644;10.942;2022-09-28T14:42:10;7.18;;;1.60;;
74369;SDS011;62805;44.644;10.942;2022-09-28T14:47:33;8.88;;;1.83;;
74369;SDS011;62805;44.644;10.942;2022-09-28T14:50:16;4.18;;;1.33;;
74369;SDS011;62805;44.644;10.942;2022-09-28T14:52:50;13.90;;;1.50;;
74369;SDS011;62805;44.644;10.942;2022-09-28T14:55:18;5.47;;;1.23;;
74369;SDS011;62805;44.644;10.942;2022-09-28T15:00:19;7.93;;;1.50;;
74369;SDS011;62805;44.644;10.942;2022-09-28T15:02:47;5.60;;;1.20;;
74369;SDS011;62805;44.644;10.942;2022-09-28T15:05:15;9.85;;;1.48;;
74369;SDS011;62805;44.644;10.942;2022-09-28T15:07:44;6.18;;;1.45;;
74369;SDS011;62805;44.644;10.942;2022-09-28T15:10:22;7.40;;;1.60;;
74369;SDS011;62805;44.644;10.942;2022-09-28T15:12:52;12.93;;;1.63;;
74369;SDS011;62805;44.644;10.942;2022-09-28T15:18:01;7.53;;;1.58;;
74369;SDS011;62805;44.644;10.942;2022-09-28T15:20:40;6.63;;;1.75;;
74369;SDS011;62805;44.644;10.942;2022-09-28T15:23:26;6.55;;;1.90;;
74369;SDS011;62805;44.644;10.942;2022-09-28T15:25:58;5.05;;;1.52;;
74369;SDS011;62805;44.644;10.942;2022-09-28T15:28:24;5.32;;;1.23;;
74369;SDS011;62805;44.644;10.942;2022-09-28T15:30:49;8.43;;;1.48;;
74369;SDS011;62805;44.644;10.942;2022-09-28T15:33:25;7.47;;;2.13;;
74369;SDS011;62805;44.644;10.942;2022-09-28T15:36:12;6.60;;;1.52;;
74369;SDS011;62805;44.644;10.942;2022-09-28T15:38:42;6.75;;;2.47;;
74369;SDS011;62805;44.644;10.942;2022-09-28T15:41:10;5.72;;;1.67;;
74369;SDS011;62805;44.644;10.942;2022-09-28T15:43:35;6.25;;;1.65;;
74369;SDS011;62805;44.644;10.942;2022-09-28T15:46:17;8.82;;;1.50;;
74369;SDS011;62805;44.644;10.942;2022-09-28T15:48:54;7.70;;;1.60;;
74369;SDS011;62805;44.644;10.942;2022-09-28T15:51:23;5.25;;;1.30;;
74369;SDS011;62805;44.644;10.942;2022-09-28T15:56:25;8.80;;;1.52;;
74369;SDS011;62805;44.644;10.942;2022-09-28T16:02:28;10.45;;;1.63;;
74369;SDS011;62805;44.644;10.942;2022-09-28T16:04:50;4.90;;;1.50;;
74369;SDS011;62805;44.644;10.942;2022-09-28T16:07:29;10.50;;;1.52;;
74369;SDS011;62805;44.644;10.942;2022-09-28T16:15:23;6.97;;;1.27;;
74369;SDS011;62805;44.644;10.942;2022-09-28T16:17:53;7.38;;;2.17;;
74369;SDS011;62805;44.644;10.942;2022-09-28T16:22:48;6.68;;;1.52;;
74369;SDS011;62805;44.644;10.942;2022-09-28T16:25:17;8.02;;;1.30;;
74369;SDS011;62805;44.644;10.942;2022-09-28T16:27:47;5.57;;;1.50;;
74369;SDS011;62805;44.644;10.942;2022-09-28T16:30:14;8.10;;;1.63;;
74369;SDS011;62805;44.644;10.942;2022-09-28T16:32:50;9.10;;;1.42;;
74369;SDS011;62805;44.644;10.942;2022-09-28T16:35:18;9.18;;;1.85;;
74369;SDS011;62805;44.644;10.942;2022-09-28T16:37:47;7.90;;;1.45;;
74369;SDS011;62805;44.644;10.942;2022-09-28T16:40:18;6.40;;;1.55;;
74369;SDS011;62805;44.644;10.942;2022-09-28T16:42:44;7.90;;;1.50;;
74369;SDS011;62805;44.644;10.942;2022-09-28T16:45:14;8.70;;;1.48;;
74369;SDS011;62805;44.644;10.942;2022-09-28T16:47:42;4.72;;;1.30;;
74369;SDS011;62805;44.644;10.942;2022-09-28T16:50:09;5.05;;;1.40;;
74369;SDS011;62805;44.644;10.942;2022-09-28T16:52:38;5.00;;;1.40;;
74369;SDS011;62805;44.644;10.942;2022-09-28T16:55:22;7.07;;;2.00;;
74369;SDS011;62805;44.644;10.942;2022-09-28T16:57:48;9.23;;;1.70;;
74369;SDS011;62805;44.644;10.942;2022-09-28T17:00:20;8.57;;;1.70;;
74369;SDS011;62805;44.644;10.942;2022-09-28T17:02:49;7.55;;;1.67;;
74369;SDS011;62805;44.644;10.942;2022-09-28T17:05:18;8.32;;;1.60;;
74369;SDS011;62805;44.644;10.942;2022-09-28T17:07:45;10.38;;;1.48;;
74369;SDS011;62805;44.644;10.942;2022-09-28T17:10:35;7.15;;;1.67;;
74369;SDS011;62805;44.644;10.942;2022-09-28T17:13:03;7.63;;;1.40;;
74369;SDS011;62805;44.644;10.942;2022-09-28T17:15:29;10.17;;;2.10;;
74369;SDS011;62805;44.644;10.942;2022-09-28T17:17:54;6.90;;;1.45;;
74369;SDS011;62805;44.644;10.942;2022-09-28T17:20:24;5.70;;;1.73;;
74369;SDS011;62805;44.644;10.942;2022-09-28T17:22:51;8.18;;;2.80;;
74369;SDS011;62805;44.644;10.942;2022-09-28T17:25:17;9.20;;;2.42;;
74369;SDS011;62805;44.644;10.942;2022-09-28T17:27:43;6.40;;;1.25;;
74369;SDS011;62805;44.644;10.942;2022-09-28T17:30:12;8.32;;;2.05;;
74369;SDS011;62805;44.644;10.942;2022-09-28T17:32:39;9.70;;;1.40;;
74369;SDS011;62805;44.644;10.942;2022-09-28T17:35:16;11.10;;;1.83;;
74369;SDS011;62805;44.644;10.942;2022-09-28T17:37:43;6.97;;;1.35;;
74369;SDS011;62805;44.644;10.942;2022-09-28T17:40:25;8.43;;;1.73;;
74369;SDS011;62805;44.644;10.942;2022-09-28T17:42:52;7.88;;;1.90;;
74369;SDS011;62805;44.644;10.942;2022-09-28T17:45:25;8.73;;;1.90;;
74369;SDS011;62805;44.644;10.942;2022-09-28T17:47:55;13.65;;;2.17;;
74369;SDS011;62805;44.644;10.942;2022-09-28T17:50:25;7.35;;;1.88;;
74369;SDS011;62805;44.644;10.942;2022-09-28T17:52:56;6.10;;;1.80;;
74369;SDS011;62805;44.644;10.942;2022-09-28T17:55:24;7.95;;;1.83;;
74369;SDS011;62805;44.644;10.942;2022-09-28T17:57:55;6.28;;;1.70;;
74369;SDS011;62805;44.644;10.942;2022-09-28T18:00:22;7.15;;;1.70;;
74369;SDS011;62805;44.644;10.942;2022-09-28T18:02:51;7.75;;;1.85;;